ADDS METAR Data INFO
IDs: Format: Raw Decoded Include TAF

Data at: 2052 UTC 24 Jun 2018

KINK 241953Z AUTO 25019G26KT 10SM CLR 42/05 A2974 RMK AO2 PK WND 27026/1952 SLP010 T04170050 $
KINK 241853Z AUTO 25017G24KT 10SM CLR 41/06 A2976 RMK AO2 SLP018 T04060056 $
KINK 241753Z AUTO 24011G17KT 200V260 10SM CLR 39/07 A2978 RMK AO2 SLP026 T03890072 10394 20250 58006 $
KINK 241653Z AUTO 21011KT 10SM CLR 37/10 A2980 RMK AO2 SLP032 T03670100 $
KINK 241553Z AUTO 22011KT 10SM CLR 34/10 A2980 RMK AO2 SLP035 T03440100 $
KINK 241453Z AUTO 19010KT 10SM CLR 31/16 A2980 RMK AO2 SLP036 T03110156 50010 $
KINK 241353Z AUTO 17011KT 10SM CLR 28/18 A2980 RMK AO2 SLP038 T02780178
KINK 241253Z AUTO 18015G18KT 10SM CLR 26/18 A2978 RMK AO2 SLP028 T02560178
KINK 241153Z AUTO 15013KT 10SM CLR 26/18 A2977 RMK AO2 SLP023 T02560178 10306 20256 51008
KINK 241053Z AUTO 14006KT 10SM CLR 27/17 A2976 RMK AO2 SLP019 T02670172
KINK 240953Z AUTO 14012KT 10SM CLR 28/17 A2975 RMK AO2 SLP018 T02780172
KINK 240853Z AUTO 14012KT 10SM CLR 28/18 A2974 RMK AO2 SLP012 T02830178 50004
KINK 240753Z AUTO 15013KT 10SM CLR 30/18 A2975 RMK AO2 SLP014 T03000178
KINK 240653Z AUTO 15011KT 10SM CLR 30/17 A2974 RMK AO2 SLP013 T03000172
KINK 240553Z AUTO 14010KT 10SM CLR 30/17 A2973 RMK AO2 SLP009 T03000172 10400 20289 404110228 51012
KINK 240453Z AUTO 14009KT 10SM CLR 29/17 A2972 RMK AO2 SLP009 T02940167
KINK 240353Z AUTO 13010KT 10SM CLR 32/12 A2970 RMK AO2 SLP002 T03170122
KINK 240253Z AUTO 13007KT 10SM CLR 31/13 A2969 RMK AO2 SLP999 T03060133 55000
KINK 240153Z AUTO 12005KT 10SM CLR 34/13 A2968 RMK AO2 SLP995 T03440128
KINK 240053Z AUTO 09005KT 10SM CLR 38/09 A2968 RMK AO2 SLP993 T03830094
KINK 232353Z AUTO 07005KT 10SM CLR 39/09 A2969 RMK AO2 SLP997 T03940094 10411 20356 58014
KINK 232253Z AUTO 05006KT 10SM CLR 41/10 A2971 RMK AO2 SLP004 T04110100
KINK 232153Z AUTO VRB03KT 10SM CLR 40/11 A2972 RMK AO2 SLP008 T04000106
KINK 232053Z AUTO 31008KT 10SM CLR 40/11 A2973 RMK AO2 SLP011 T04000106 58014
KINK 231953Z AUTO 01006KT 10SM CLR 38/13 A2975 RMK AO2 SLP016 T03830128
KINK 231853Z AUTO 34008KT 10SM CLR 37/13 A2977 RMK AO2 SLP023 T03670128
KINK 231753Z AUTO 31010KT 10SM CLR 36/11 A2978 RMK AO2 SLP028 T03560111 10356 20228 50000
KINK 231653Z AUTO 30011KT 10SM CLR 34/11 A2979 RMK AO2 SLP031 T03440106
KINK 231553Z AUTO 29009KT 10SM CLR 33/13 A2978 RMK AO2 SLP029 T03280128
KINK 231453Z AUTO 17007KT 10SM CLR 29/18 A2978 RMK AO2 SLP029 T02940178 51013
KINK 231353Z AUTO 15010KT 10SM CLR 27/18 A2977 RMK AO2 SLP026 T02670183
KINK 231253Z AUTO 13006KT 10SM CLR 24/18 A2976 RMK AO2 SLP023 T02390183
KINK 231153Z AUTO 14009KT 10SM CLR 23/18 A2973 RMK AO2 SLP015 T02280178 10283 20228 51004
KINK 231053Z AUTO 14010KT 10SM CLR 23/18 A2973 RMK AO2 SLP013 T02330178
KINK 230953Z AUTO 15008KT 10SM CLR 24/18 A2974 RMK AO2 SLP015 T02440178
KINK 230853Z AUTO 14011KT 10SM CLR 26/17 A2972 RMK AO2 SLP008 T02560172 56013